DW0809 Weather Reports


Display with metric or nautical units.
time (UTC)temp
F
wind
direction
speed
MPH
gust
MPH
rain 1hr
in
rain 24hr
in
rain mn
in
humidity
%
barometer
mb
20171215062616 35 337 6.0 10.0 0.00 0.00 0.00 75 1020.9
20171215061636 35 337 5.0 9.0 0.00 0.00 0.00 75 1020.8
20171215060616 35 337 4.0 10.0 0.00 0.00 0.00 75 1021.0
20171215055616 36 315 3.0 7.0 0.00 0.00 0.00 75 1020.9
20171215054616 36 337 4.0 8.0 0.00 0.00 0.00 75 1021.0
20171215053616 36 315 1.0 4.0 0.00 0.00 0.00 74 1021.0
20171215052616 36 337 2.0 5.0 0.00 0.00 0.00 73 1021.0
20171215051616 36 337 3.0 7.0 0.00 0.00 0.00 72 1021.0
20171215050616 36 337 4.0 9.0 0.00 0.00 0.00 72 1020.9
20171215045636 36 337 3.0 7.0 0.00 0.00 0.00 71 1020.8
20171215044636 37 337 4.0 10.0 0.00 0.00 0.00 71 1020.8
20171215043616 37 337 3.0 9.0 0.00 0.00 0.00 71 1020.7
20171215042616 37 337 4.0 9.0 0.00 0.00 0.00 70 1020.8
20171215041616 37 337 4.0 8.0 0.00 0.00 0.00 71 1020.7
20171215040616 37 337 2.0 6.0 0.00 0.00 0.00 73 1020.8
20171215035616 37 315 3.0 8.0 0.00 0.00 0.00 74 1020.9
20171215034617 38 337 5.0 8.0 0.00 0.00 0.00 74 1020.8
20171215033616 38 337 3.0 7.0 0.00 0.00 0.00 75 1020.7
20171215032616 38 337 4.0 9.0 0.00 0.00 0.00 74 1020.7
20171215031616 38 315 3.0 8.0 0.00 0.00 0.00 73 1020.7
20171215030616 38 337 2.0 8.0 0.00 0.00 0.00 72 1020.6
20171215025615 38 315 1.0 5.0 0.00 0.00 0.00 69 1020.6
20171215024636 38 315 2.0 7.0 0.00 0.00 0.00 68 1020.5
20171215023636 38 315 1.0 5.0 0.00 0.00 0.00 67 1020.6
20171215022615 38 337 1.0 4.0 0.00 0.00 0.00 67 1020.6
20171215021616 38 0 2.0 4.0 0.00 0.00 0.00 67 1020.6
20171215020616 38 0.0 4.0 0.00 0.00 0.00 67 1020.5
20171215015615 38 0.0 3.0 0.00 0.00 0.00 67 1020.4
20171215014656 38 0.0 0.0 0.00 0.00 0.00 67 1020.3
20171215013616 38 0.0 3.0 0.00 0.00 0.00 67 1020.3
20171215012615 38 0.0 2.0 0.00 0.00 0.00 68 1020.3
20171215011616 37 0.0 0.0 0.00 0.00 0.00 68 1020.2
20171215010616 38 0.0 0.0 0.00 0.00 0.00 67 1020.1
20171215005616 38 0.0 0.0 0.00 0.00 0.00 67 1020.0
20171215004616 38 0.0 0.0 0.00 0.00 0.00 66 1020.0
20171215003616 38 0.0 0.0 0.00 0.00 0.00 66 1020.0
20171215002636 39 0.0 0.0 0.00 0.00 0.00 66 1020.0
20171215001616 39 0.0 0.0 0.00 0.00 0.00 66 1019.9
20171215000615 39 0.0 0.0 0.00 0.00 0.00 66 1019.8
20171214235615 39 0.0 0.0 0.00 0.00 0.00 65 1019.7
20171214234615 39 0.0 0.0 0.00 0.00 0.00 65 1019.7
20171214233616 39 0.0 0.0 0.00 0.00 0.00 64 1019.6
20171214232635 39 0.0 2.0 0.00 0.00 0.00 64 1019.5
20171214231635 39 0.0 0.0 0.00 0.00 0.00 64 1019.4
20171214230636 39 0.0 1.0 0.00 0.00 0.00 64 1019.2
20171214225615 40 0.0 2.0 0.00 0.00 0.00 64 1019.2
20171214224615 40 0.0 3.0 0.00 0.00 0.00 64 1019.1
20171214223616 40 0 1.0 5.0 0.00 0.00 0.00 64 1019.0
20171214222617 40 0 1.0 5.0 0.00 0.00 0.00 64 1019.0
20171214221617 40 0.0 4.0 0.00 0.00 0.00 64 1018.9
20171214215617 40 0.0 0.0 0.00 0.00 0.00 64 1018.7
20171214214617 40 0.0 0.0 0.00 0.00 0.00 64 1018.6
20171214213618 40 0.0 0.0 0.00 0.00 0.00 65 1018.6
20171214212617 40 337 1.0 5.0 0.00 0.00 0.00 64 1018.6
20171214211637 40 0 1.0 5.0 0.00 0.00 0.00 64 1018.5
20171214210617 40 337 2.0 5.0 0.00 0.00 0.00 63 1018.5
20171214205617 40 0.0 3.0 0.00 0.00 0.00 63 1018.4
20171214204637 40 337 1.0 4.0 0.00 0.00 0.00 63 1018.3
20171214203638 40 337 1.0 5.0 0.00 0.00 0.00 62 1018.3
20171214202617 40 0.0 0.0 0.00 0.00 0.00 63 1018.1
20171214201617 40 0.0 4.0 0.00 0.00 0.00 62 1018.2
20171214200617 40 0.0 2.0 0.00 0.00 0.00 63 1018.1
20171214195617 40 337 2.0 5.0 0.00 0.00 0.00 62 1018.2
20171214194617 40 0.0 5.0 0.00 0.00 0.00 62 1018.1
20171214193617 40 315 1.0 5.0 0.00 0.00 0.00 61 1018.2
20171214192618 40 337 2.0 7.0 0.00 0.00 0.00 60 1018.1
20171214191617 41 315 2.0 5.0 0.00 0.00 0.00 59 1018.1
20171214185617 40 0.0 3.0 0.00 0.00 0.00 63 1018.2
20171214184617 40 292 2.0 7.0 0.00 0.00 0.00 62 1018.5
20171214183617 40 337 1.0 4.0 0.00 0.00 0.00 62 1018.4
20171214182618 40 0.0 3.0 0.00 0.00 0.00 62 1018.5
20171214181617 40 0.0 1.0 0.00 0.00 0.00 63 1018.4
20171214180657 40 292 1.0 5.0 0.00 0.00 0.00 63 1018.4
20171214175637 39 292 1.0 7.0 0.00 0.00 0.00 65 1018.4
20171214174637 39 315 2.0 5.0 0.00 0.00 0.00 65 1018.5
20171214173637 39 292 2.0 5.0 0.00 0.00 0.00 64 1018.6
20171214172618 39 337 2.0 9.0 0.00 0.00 0.00 64 1018.7
20171214171617 39 270 4.0 7.0 0.00 0.00 0.00 64 1018.8
20171214170617 38 0.0 1.0 0.00 0.00 0.00 66 1018.9
20171214165617 38 0.0 3.0 0.00 0.00 0.00 67 1018.9
20171214164617 37 0.0 3.0 0.00 0.00 0.00 68 1019.0
20171214163617 37 0.0 0.0 0.00 0.00 0.00 71 1019.1
20171214162637 37 0.0 3.0 0.00 0.00 0.00 71 1019.0
20171214161636 36 0.0 2.0 0.00 0.00 0.00 73 1018.9
20171214160617 36 0.0 4.0 0.00 0.00 0.00 75 1018.8
20171214155637 36 292 1.0 4.0 0.00 0.00 0.00 77 1018.8
20171214154637 36 292 1.0 4.0 0.00 0.00 0.00 78 1018.6
20171214153617 35 0.0 1.0 0.00 0.00 0.00 79 1018.6
20171214152657 35 0.0 0.0 0.00 0.00 0.00 79 1018.5
20171214151637 35 0.0 0.0 0.00 0.00 0.00 79 1018.4
20171214150617 35 0.0 0.0 0.00 0.00 0.00 79 1018.5
20171214145617 34 0.0 0.0 0.00 0.00 0.00 79 1018.5
20171214144617 34 0.0 0.0 0.00 0.00 0.00 80 1018.4
20171214143637 34 0.0 0.0 0.00 0.00 0.00 80 1018.3
20171214142617 34 0.0 0.0 0.00 0.00 0.00 80 1018.3
20171214141637 34 0.0 0.0 0.00 0.00 0.00 79 1018.2
20171214140657 34 0.0 0.0 0.00 0.00 0.00 79 1018.3
20171214135617 34 0.0 0.0 0.00 0.00 0.00 79 1018.2
20171214134616 34 0.0 0.0 0.00 0.00 0.00 79 1018.2
20171214133617 34 0.0 0.0 0.00 0.00 0.00 80 1018.2
20171214132637 34 0.0 0.0 0.00 0.00 0.00 80 1018.1
20171214131617 34 0.0 0.0 0.00 0.00 0.00 80 1018.0
20171214130617 34 0.0 0.0 0.00 0.00 0.00 80 1017.9
20171214125617 34 0.0 0.0 0.00 0.00 0.00 80 1017.8
20171214124657 34 0.0 0.0 0.00 0.00 0.00 80 1017.7
20171214123617 34 0.0 0.0 0.00 0.00 0.00 80 1017.6
20171214122617 34 0.0 4.0 0.00 0.00 0.00 80 1017.6
20171214121616 34 315 1.0 6.0 0.00 0.00 0.00 81 1017.5
20171214120616 34 0.0 0.0 0.00 0.00 0.00 82 1017.4
20171214115616 34 0.0 0.0 0.00 0.00 0.00 82 1017.2
20171214114616 34 0.0 1.0 0.00 0.00 0.00 82 1017.3
20171214113616 34 0.0 0.0 0.00 0.00 0.00 82 1017.1
20171214112637 34 0.0 0.0 0.00 0.00 0.00 81 1017.0
20171214111616 34 0.0 0.0 0.00 0.00 0.00 81 1017.0
20171214110616 34 0.0 0.0 0.00 0.00 0.00 81 1016.9
20171214104619 34 0.0 1.0 0.00 0.00 0.00 80 1017.0
20171214103619 34 315 1.0 4.0 0.00 0.00 0.00 79 1017.1
20171214102617 34 0.0 4.0 0.00 0.00 0.00 79 1017.0
20171214101617 35 0.0 0.0 0.00 0.00 0.00 78 1017.0
20171214100616 35 337 1.0 6.0 0.00 0.00 0.00 77 1017.0
20171214095636 35 0 1.0 5.0 0.00 0.00 0.00 75 1016.8
20171214094616 35 0 1.0 5.0 0.00 0.00 0.00 73 1016.9
20171214093617 35 0.0 3.0 0.00 0.00 0.00 72 1017.0
20171214092637 35 0.0 0.0 0.00 0.00 0.00 72 1016.9
20171214090616 35 0.0 5.0 0.00 0.00 0.00 73 1017.0
20171214085656 35 337 1.0 5.0 0.00 0.00 0.00 73 1017.0
20171214084616 36 337 1.0 5.0 0.00 0.00 0.00 73 1016.9
20171214083616 36 0.0 4.0 0.00 0.00 0.00 72 1016.8
20171214082616 36 337 1.0 7.0 0.00 0.00 0.00 72 1016.7
20171214081616 36 0.0 3.0 0.00 0.00 0.00 72 1016.6
20171214080616 36 0.0 3.0 0.00 0.00 0.00 72 1016.6
20171214075616 36 0.0 4.0 0.00 0.00 0.00 72 1016.7
20171214074617 36 337 1.0 4.0 0.00 0.00 0.00 70 1016.6
20171214073616 36 337 1.0 8.0 0.00 0.00 0.00 70 1016.4
20171214072616 36 22 4.0 13.0 0.00 0.00 0.00 69 1016.2
20171214071636 37 22 3.0 10.0 0.00 0.00 0.00 70 1016.1
20171214070636 37 22 1.0 5.0 0.00 0.00 0.00 72 1016.0
20171214065657 37 337 1.0 5.0 0.00 0.00 0.00 71 1015.9
20171214064616 37 0.0 0.0 0.00 0.00 0.00 71 1015.8
20171214063616 37 0.0 5.0 0.00 0.00 0.00 71 1015.9